Terminal Aerodrome Forecast
Issued by NWS Wakefield, VA

Current Version | Previous Version | Text Only | Print | Product List | Glossary On
Versions: 1 2 3 4 5 6 7 8 9 10 11 12
000
FTUS41 KAKQ 041146 RRA
TAFECG
TAF
KECG 041146Z 0412/0512 35004KT P6SM OVC200
     FM042100 05004KT P6SM VCSH OVC040
     FM042300 VRB03KT P6SM -RA SCT020 OVC040
     FM050600 13006KT 6SM -RA OVC020
     FM050900 11004KT 6SM -RA OVC008=

USA.gov is the U.S. government's official web portal to all federal, state and local government web resources and services.